Time;durP1;ratioP1;P1;durP2;ratioP2;P2;SDS_P1;SDS_P2;PMS_P1;PMS_P2;Temp;Humidity;BMP_temperature;BMP_pressure;BME280_temperature;BME280_humidity;BME280_pressure;Samples;Min_cycle;Max_cycle;Signal;HPM_P1;HPM_P2
2021/08/04 00:01:44;;;;;;;9.53;8.13;;;19.10;37.80;;;;;;5113689;28;20526;-81
2021/08/04 00:04:11;;;;;;;10.50;8.20;;;19.10;40.20;;;;;;5112958;28;20183;-83
2021/08/04 00:06:38;;;;;;;9.20;7.73;;;19.10;41.10;;;;;;5112679;28;20178;-81
2021/08/04 00:09:04;;;;;;;8.90;7.57;;;19.10;40.30;;;;;;5111533;28;20163;-83
2021/08/04 00:11:30;;;;;;;11.10;7.77;;;19.10;41.10;;;;;;5112453;28;20195;-82
2021/08/04 00:13:56;;;;;;;8.70;7.37;;;18.90;45.30;;;;;;5110769;28;20171;-81
2021/08/04 00:16:21;;;;;;;9.03;6.83;;;18.90;49.00;;;;;;5111228;28;20168;-82
2021/08/04 00:18:47;;;;;;;8.37;6.80;;;18.80;50.70;;;;;;5111264;28;20460;-82
2021/08/04 00:21:13;;;;;;;7.60;6.67;;;18.90;50.40;;;;;;5110845;28;20163;-82
2021/08/04 00:23:38;;;;;;;10.27;7.00;;;18.90;50.20;;;;;;5109886;28;20172;-82
2021/08/04 00:26:04;;;;;;;9.00;6.37;;;18.90;51.10;;;;;;5090829;28;20164;-82
2021/08/04 00:28:29;;;;;;;7.20;6.33;;;18.80;54.60;;;;;;5091661;28;20681;-80
2021/08/04 00:30:55;;;;;;;9.10;6.73;;;18.90;54.30;;;;;;5090789;28;20573;-82
2021/08/04 00:33:21;;;;;;;9.97;6.30;;;18.90;52.10;;;;;;5091018;28;20628;-81
2021/08/04 00:35:46;;;;;;;8.93;5.73;;;18.80;55.70;;;;;;5090142;28;20176;-81
2021/08/04 00:38:13;;;;;;;10.57;6.17;;;18.90;56.90;;;;;;5090392;28;20582;-82
2021/08/04 00:40:41;;;;;;;8.40;5.63;;;18.90;59.30;;;;;;5090138;28;20705;-77
2021/08/04 00:43:07;;;;;;;8.93;6.10;;;18.70;62.20;;;;;;5081526;28;20180;-77
2021/08/04 00:45:34;;;;;;;9.07;5.77;;;18.60;66.00;;;;;;5076846;28;20169;-80
2021/08/04 00:48:00;;;;;;;7.63;6.17;;;18.50;70.70;;;;;;5076321;28;20168;-82
2021/08/04 00:50:26;;;;;;;7.17;6.17;;;18.40;74.40;;;;;;5076041;28;20168;-80
2021/08/04 00:52:52;;;;;;;9.00;6.63;;;18.40;75.70;;;;;;5076487;28;20174;-81
2021/08/04 00:55:18;;;;;;;8.53;6.13;;;18.30;75.50;;;;;;5076220;28;20294;-81
2021/08/04 00:57:43;;;;;;;8.23;6.10;;;18.30;77.80;;;;;;5058657;28;20168;-79
2021/08/04 01:00:10;;;;;;;7.00;5.90;;;18.30;77.70;;;;;;5077316;28;20203;-77
2021/08/04 01:02:43;;;;;;;10.93;6.50;;;18.30;78.40;;;;;;5076307;28;20236;-77
2021/08/04 01:05:15;;;;;;;7.90;6.67;;;18.50;76.30;;;;;;5075703;28;20167;-77
2021/08/04 01:07:47;;;;;;;8.00;6.50;;;18.60;74.20;;;;;;5076403;28;20173;-83
2021/08/04 01:10:31;;;;;;;9.80;6.83;;;18.70;72.20;;;;;;5075712;28;20238;-80
2021/08/04 01:13:09;;;;;;;8.30;7.07;;;18.80;70.10;;;;;;5058438;28;20176;-78
2021/08/04 01:15:42;;;;;;;8.73;6.57;;;18.80;69.00;;;;;;5094586;28;20184;-75
2021/08/04 01:18:10;;;;;;;9.70;7.20;;;18.90;68.60;;;;;;5096853;28;20149;-81
2021/08/04 01:20:36;;;;;;;8.30;6.40;;;18.90;67.30;;;;;;5097447;28;20171;-77
2021/08/04 01:23:23;;;;;;;9.20;7.10;;;18.90;65.20;;;;;;5097901;28;20176;-75
2021/08/04 01:25:55;;;;;;;9.20;6.47;;;18.80;67.70;;;;;;5079271;28;20220;-80
2021/08/04 01:28:33;;;;;;;11.50;7.50;;;18.90;66.80;;;;;;5078174;28;20172;-80
2021/08/04 01:31:03;;;;;;;10.70;7.40;;;18.80;67.10;;;;;;5075316;28;20215;-78
2021/08/04 01:33:31;;;;;;;9.23;7.20;;;18.80;67.20;;;;;;5075391;28;20166;-80
2021/08/04 01:35:58;;;;;;;10.37;7.30;;;18.90;64.90;;;;;;5075427;28;20168;-77
2021/08/04 01:38:25;;;;;;;8.33;7.43;;;18.80;63.30;;;;;;5075452;28;20213;-77
2021/08/04 01:40:53;;;;;;;9.40;7.30;;;18.90;62.00;;;;;;5075357;28;20268;-80
2021/08/04 01:43:19;;;;;;;8.37;7.30;;;19.00;61.30;;;;;;5075410;28;20538;-81
2021/08/04 01:45:46;;;;;;;11.93;7.80;;;19.00;59.90;;;;;;5058121;28;20685;-81
2021/08/04 01:48:11;;;;;;;8.50;7.70;;;18.90;62.50;;;;;;5076084;28;20172;-80
2021/08/04 01:50:38;;;;;;;8.43;7.53;;;18.90;62.30;;;;;;5080170;28;20200;-81
2021/08/04 01:53:05;;;;;;;11.30;7.40;;;18.80;65.20;;;;;;5075819;28;20182;-82
2021/08/04 01:55:31;;;;;;;8.77;7.67;;;18.90;65.00;;;;;;5057600;28;20176;-81
2021/08/04 01:57:57;;;;;;;9.20;7.80;;;18.90;63.50;;;;;;5075756;28;20658;-79
2021/08/04 02:00:23;;;;;;;9.57;7.57;;;18.90;62.40;;;;;;5063823;28;20161;-77
2021/08/04 02:02:48;;;;;;;11.80;8.07;;;18.90;62.20;;;;;;5099160;28;20224;-77
2021/08/04 02:05:14;;;;;;;10.30;7.63;;;18.90;60.90;;;;;;5079195;28;20248;-78
2021/08/04 02:07:58;;;;;;;10.10;8.37;;;19.00;59.80;;;;;;5092023;28;20170;-78
2021/08/04 02:10:29;;;;;;;9.70;8.17;;;19.00;60.30;;;;;;5088554;28;20220;-81
2021/08/04 02:13:01;;;;;;;9.93;8.77;;;19.00;60.30;;;;;;5074896;28;20179;-79
2021/08/04 02:15:37;;;;;;;12.00;9.23;;;18.90;66.60;;;;;;5074898;28;20609;-81
2021/08/04 02:18:08;;;;;;;11.07;9.80;;;18.60;70.50;;;;;;5074626;28;20186;-80
2021/08/04 02:20:38;;;;;;;11.70;10.47;;;18.50;72.10;;;;;;5075018;28;20160;-82
2021/08/04 02:23:12;;;;;;;10.97;9.80;;;18.40;72.90;;;;;;5075406;28;20249;-82
2021/08/04 02:26:00;;;;;;;11.97;10.47;;;18.30;77.00;;;;;;5075372;28;20278;-81
2021/08/04 02:28:37;;;;;;;12.97;10.20;;;18.10;81.00;;;;;;5081656;28;20148;-77
2021/08/04 02:31:06;;;;;;;11.07;9.77;;;17.90;85.80;;;;;;5099011;28;20218;-77
2021/08/04 02:33:32;;;;;;;12.53;10.57;;;17.70;89.10;;;;;;5099155;28;20171;-77
2021/08/04 02:35:59;;;;;;;11.17;9.83;;;17.70;90.30;;;;;;5091745;28;20177;-77
2021/08/04 02:38:25;;;;;;;14.23;10.87;;;17.60;91.00;;;;;;5088980;28;20160;-77
2021/08/04 02:40:54;;;;;;;11.47;10.30;;;17.50;92.30;;;;;;5081028;28;20162;-80
2021/08/04 02:43:33;;;;;;;13.27;10.97;;;17.40;92.90;;;;;;5074745;28;20527;-77
2021/08/04 02:46:00;;;;;;;12.67;11.27;;;17.60;92.00;;;;;;5074613;28;20302;-81
2021/08/04 02:48:27;;;;;;;14.37;12.87;;;17.70;91.50;;;;;;5074159;28;20570;-80
2021/08/04 02:51:08;;;;;;;14.33;13.00;;;17.60;92.10;;;;;;5074500;28;20191;-79
2021/08/04 02:53:33;;;;;;;15.20;12.57;;;17.50;92.90;;;;;;5074671;28;20191;-81
2021/08/04 02:55:59;;;;;;;15.00;12.40;;;17.40;93.50;;;;;;5074481;28;20628;-81
2021/08/04 02:58:25;;;;;;;14.13;12.33;;;17.20;95.00;;;;;;5074603;28;20204;-81
2021/08/04 03:00:51;;;;;;;14.00;12.20;;;17.10;96.50;;;;;;5074035;28;20183;-79
2021/08/04 03:03:18;;;;;;;19.67;12.53;;;16.90;97.50;;;;;;5074558;28;20259;-80
2021/08/04 03:05:43;;;;;;;13.77;12.03;;;17.00;98.20;;;;;;5073867;28;20259;-82
2021/08/04 03:08:09;;;;;;;13.97;12.57;;;16.80;99.10;;;;;;5073973;28;20208;-77
2021/08/04 03:10:35;;;;;;;12.90;11.57;;;16.90;99.20;;;;;;5055112;28;20200;-79
2021/08/04 03:13:01;;;;;;;14.13;12.10;;;16.90;99.10;;;;;;5073896;28;20164;-79
2021/08/04 03:15:27;;;;;;;13.27;11.87;;;16.80;99.70;;;;;;5055778;28;20632;-82
2021/08/04 03:17:53;;;;;;;13.67;12.00;;;16.80;99.90;;;;;;5074609;28;20194;-80
2021/08/04 03:20:18;;;;;;;15.77;12.50;;;16.70;99.90;;;;;;5074837;28;20195;-82
2021/08/04 03:22:46;;;;;;;12.87;11.50;;;16.80;99.90;;;;;;5074677;28;20247;-81
2021/08/04 03:25:14;;;;;;;13.00;11.07;;;16.80;99.90;;;;;;5074338;28;20192;-83
2021/08/04 03:27:40;;;;;;;12.67;11.47;;;16.90;99.60;;;;;;5073914;28;20168;-80
2021/08/04 03:30:06;;;;;;;13.00;11.70;;;17.00;99.10;;;;;;5055570;28;20184;-80
2021/08/04 03:32:31;;;;;;;14.10;11.40;;;17.10;98.30;;;;;;5073931;28;20219;-81
2021/08/04 03:34:57;;;;;;;13.33;11.93;;;17.10;97.40;;;;;;5075241;28;20168;-78
2021/08/04 03:37:23;;;;;;;13.73;12.37;;;17.10;97.10;;;;;;5076865;28;20176;-82
2021/08/04 03:39:48;;;;;;;14.33;12.17;;;17.10;97.50;;;;;;5078421;28;20164;-79
2021/08/04 03:42:16;;;;;;;17.40;12.70;;;17.10;96.70;;;;;;5080305;28;20172;-81
2021/08/04 03:44:42;;;;;;;14.97;13.20;;;17.10;96.80;;;;;;5079405;28;20164;-82
2021/08/04 03:47:09;;;;;;;14.53;13.13;;;16.90;97.60;;;;;;5081896;28;20198;-82
2021/08/04 03:49:35;;;;;;;14.37;12.07;;;17.00;98.00;;;;;;5079071;28;20195;-82
2021/08/04 03:52:00;;;;;;;16.63;12.40;;;17.10;98.20;;;;;;5075055;28;20243;-81
2021/08/04 03:54:26;;;;;;;14.27;12.73;;;16.90;98.30;;;;;;5074294;28;20643;-80
2021/08/04 03:56:51;;;;;;;13.57;12.17;;;16.90;98.50;;;;;;5073539;28;20655;-81
2021/08/04 03:59:17;;;;;;;16.10;12.37;;;16.90;98.70;;;;;;5073525;28;20160;-78
2021/08/04 04:01:43;;;;;;;14.40;12.90;;;16.90;98.90;;;;;;5074500;28;20233;-78
2021/08/04 04:04:08;;;;;;;13.93;12.50;;;16.90;98.70;;;;;;5075857;28;20514;-81
2021/08/04 04:06:34;;;;;;;14.47;12.97;;;16.90;99.00;;;;;;5074291;28;20172;-81
2021/08/04 04:08:59;;;;;;;14.10;12.60;;;17.10;98.60;;;;;;5073886;28;20160;-81
2021/08/04 04:11:25;;;;;;;14.50;13.03;;;17.20;97.80;;;;;;5074526;28;20632;-80
2021/08/04 04:13:52;;;;;;;14.73;13.23;;;17.10;98.00;;;;;;5074451;28;20562;-80
2021/08/04 04:16:17;;;;;;;15.10;13.13;;;17.00;98.40;;;;;;5075669;28;20172;-77
2021/08/04 04:18:43;;;;;;;16.67;12.67;;;17.00;98.50;;;;;;5075357;28;20172;-81
2021/08/04 04:21:09;;;;;;;13.83;12.43;;;17.00;98.70;;;;;;5076375;28;20168;-80
2021/08/04 04:23:34;;;;;;;14.07;12.67;;;17.10;98.60;;;;;;5076190;28;20187;-79
2021/08/04 04:26:02;;;;;;;16.90;13.03;;;17.20;98.60;;;;;;5076236;28;20187;-82
2021/08/04 04:28:29;;;;;;;14.07;12.63;;;17.40;98.20;;;;;;5076399;28;20173;-81
2021/08/04 04:30:54;;;;;;;14.77;13.17;;;17.30;97.80;;;;;;5075810;28;20269;-81
2021/08/04 04:33:20;;;;;;;14.53;13.07;;;17.30;97.50;;;;;;5076360;28;20704;-80
2021/08/04 04:35:45;;;;;;;14.57;13.03;;;17.30;96.80;;;;;;5076052;28;20231;-81
2021/08/04 04:38:11;;;;;;;13.90;12.57;;;17.40;95.70;;;;;;5076119;28;20655;-79
2021/08/04 04:40:37;;;;;;;15.20;13.20;;;17.50;95.40;;;;;;5075896;28;20528;-80
2021/08/04 04:43:03;;;;;;;15.10;13.60;;;17.50;95.00;;;;;;5075827;28;20169;-80
2021/08/04 04:45:28;;;;;;;16.47;14.17;;;17.50;94.10;;;;;;5058227;28;20179;-81
2021/08/04 04:47:54;;;;;;;16.87;14.77;;;17.70;93.10;;;;;;5076152;28;20533;-77
2021/08/04 04:50:20;;;;;;;16.63;13.93;;;17.80;92.60;;;;;;5075481;28;20287;-77
2021/08/04 04:52:45;;;;;;;15.77;14.17;;;17.80;92.10;;;;;;5075942;28;20183;-79
2021/08/04 04:55:12;;;;;;;16.57;14.97;;;17.80;92.20;;;;;;5057688;28;20164;-76
2021/08/04 04:57:38;;;;;;;16.27;14.57;;;17.80;92.00;;;;;;5075641;28;20258;-79
2021/08/04 05:00:05;;;;;;;15.90;14.33;;;17.90;91.70;;;;;;5075441;28;20636;-76
2021/08/04 05:02:31;;;;;;;15.63;13.77;;;17.90;91.40;;;;;;5075899;28;20172;-76
2021/08/04 05:04:58;;;;;;;15.30;13.80;;;18.00;90.90;;;;;;5057603;28;20210;-77
2021/08/04 05:07:24;;;;;;;19.17;14.07;;;18.00;90.60;;;;;;5075969;28;20305;-77
2021/08/04 05:09:50;;;;;;;16.53;14.83;;;18.00;90.10;;;;;;5077770;28;20179;-76
2021/08/04 05:12:16;;;;;;;15.67;14.17;;;17.80;90.90;;;;;;5089803;28;20216;-75
2021/08/04 05:14:41;;;;;;;17.17;15.37;;;17.90;90.70;;;;;;5091359;28;20164;-74
2021/08/04 05:17:10;;;;;;;17.23;14.93;;;17.90;90.70;;;;;;5084688;28;20186;-75
2021/08/04 05:19:36;;;;;;;17.40;15.57;;;18.00;90.40;;;;;;5081405;28;20168;-75
2021/08/04 05:22:02;;;;;;;18.80;16.60;;;18.00;87.70;;;;;;5063187;28;20183;-76
2021/08/04 05:24:27;;;;;;;17.93;15.93;;;18.10;86.80;;;;;;5075274;28;20656;-76
2021/08/04 05:26:53;;;;;;;16.80;15.10;;;18.20;85.10;;;;;;5056843;28;20191;-76
2021/08/04 05:29:18;;;;;;;16.73;15.23;;;18.10;84.40;;;;;;5075290;28;20669;-78
2021/08/04 05:31:44;;;;;;;16.97;15.33;;;18.00;85.80;;;;;;5074466;28;20216;-76
2021/08/04 05:34:10;;;;;;;16.77;15.03;;;17.80;88.30;;;;;;5057111;28;20255;-76
2021/08/04 05:36:35;;;;;;;16.20;14.40;;;17.70;91.40;;;;;;5074781;28;20238;-79
2021/08/04 05:39:01;;;;;;;15.00;13.30;;;17.60;92.50;;;;;;5075030;28;20508;-77
2021/08/04 05:41:26;;;;;;;17.20;14.30;;;17.70;92.30;;;;;;5074525;28;20567;-77
2021/08/04 05:43:52;;;;;;;15.47;13.90;;;18.00;90.20;;;;;;5074597;28;20578;-79
2021/08/04 05:46:18;;;;;;;15.67;13.83;;;18.10;89.60;;;;;;5074735;28;20172;-80
2021/08/04 05:48:43;;;;;;;16.23;13.60;;;17.80;90.50;;;;;;5075050;28;20165;-78
2021/08/04 05:51:09;;;;;;;18.17;14.67;;;17.80;92.10;;;;;;5075755;28;20717;-81
2021/08/04 05:53:35;;;;;;;18.33;15.13;;;17.80;92.30;;;;;;5074732;28;20174;-78
2021/08/04 05:56:00;;;;;;;17.00;15.20;;;18.00;90.30;;;;;;5074774;28;20187;-79
2021/08/04 05:58:26;;;;;;;16.30;14.37;;;18.10;89.20;;;;;;5075702;28;20187;-81
2021/08/04 06:00:52;;;;;;;17.83;14.97;;;18.20;87.30;;;;;;5076395;28;20267;-80
2021/08/04 06:03:17;;;;;;;18.43;14.57;;;18.20;86.60;;;;;;5077007;28;20632;-79
2021/08/04 06:05:43;;;;;;;17.43;14.47;;;18.40;83.30;;;;;;5083467;28;20632;-78
2021/08/04 06:08:10;;;;;;;15.70;13.57;;;18.50;79.90;;;;;;5099125;28;20163;-77
2021/08/04 06:10:36;;;;;;;16.37;13.63;;;18.50;75.90;;;;;;5089515;28;20680;-76
2021/08/04 06:13:02;;;;;;;17.93;14.53;;;18.60;76.40;;;;;;5080215;28;20176;-77
2021/08/04 06:15:28;;;;;;;15.13;13.63;;;18.60;73.10;;;;;;5077303;28;20160;-77
2021/08/04 06:17:55;;;;;;;16.47;13.93;;;18.80;70.10;;;;;;5074420;28;20558;-77
2021/08/04 06:20:23;;;;;;;16.90;15.10;;;18.90;64.30;;;;;;5074221;28;20526;-77
2021/08/04 06:22:49;;;;;;;24.20;15.50;;;18.90;55.60;;;;;;5074190;28;20153;-80
2021/08/04 06:25:15;;;;;;;17.70;15.30;;;19.00;55.80;;;;;;5056167;28;20192;-81
2021/08/04 06:27:41;;;;;;;16.63;14.30;;;18.90;57.20;;;;;;5074244;28;20628;-80
2021/08/04 06:30:07;;;;;;;16.80;14.97;;;18.90;57.60;;;;;;5056385;28;20238;-77
2021/08/04 06:32:33;;;;;;;17.37;14.43;;;18.90;58.30;;;;;;5074673;28;20211;-78
2021/08/04 06:34:59;;;;;;;20.37;15.23;;;18.90;58.40;;;;;;5097383;28;20184;-76
2021/08/04 06:37:25;;;;;;;17.20;14.73;;;19.00;55.80;;;;;;5080954;28;20857;-77
2021/08/04 06:39:50;;;;;;;20.83;15.53;;;19.20;50.10;;;;;;5088984;28;20239;-78
2021/08/04 06:42:17;;;;;;;17.43;15.00;;;19.20;48.00;;;;;;5065054;28;20179;-79
2021/08/04 06:44:44;;;;;;;17.33;14.13;;;19.40;46.50;;;;;;5081957;28;20172;-78
2021/08/04 06:47:26;;;;;;;15.17;13.70;;;19.40;44.90;;;;;;5074143;28;20155;-78
2021/08/04 06:49:53;;;;;;;17.57;15.87;;;19.60;42.80;;;;;;5074993;28;20166;-78
2021/08/04 06:52:19;;;;;;;19.80;17.00;;;19.40;33.00;;;;;;5074650;28;20245;-79
2021/08/04 06:54:44;;;;;;;21.47;17.23;;;19.50;23.70;;;;;;5074069;28;20183;-78
2021/08/04 06:57:10;;;;;;;17.50;15.63;;;19.50;25.30;;;;;;5055629;28;20630;-80
2021/08/04 06:59:36;;;;;;;19.53;16.00;;;19.70;17.80;;;;;;5073839;28;20177;-81
2021/08/04 07:02:02;;;;;;;17.93;16.03;;;19.90;17.90;;;;;;5073869;28;20259;-80
2021/08/04 07:04:29;;;;;;;20.03;15.80;;;19.90;16.70;;;;;;5073582;28;20656;-77
2021/08/04 07:06:56;;;;;;;20.40;15.07;;;19.80;13.50;;;;;;5073586;28;20320;-78
2021/08/04 07:09:22;;;;;;;18.93;16.03;;;19.90;11.40;;;;;;5073597;28;20271;-77
2021/08/04 07:11:48;;;;;;;19.40;16.77;;;20.00;6.60;;;;;;5073613;28;20292;-78
2021/08/04 07:14:16;;;;;;;21.00;17.13;;;20.20;1.00;;;;;;5073161;28;20177;-81
2021/08/04 07:16:43;;;;;;;19.43;16.93;;;20.20;1.00;;;;;;5073362;28;20229;-77
2021/08/04 07:19:09;;;;;;;19.47;16.17;;;20.10;1.00;;;;;;5073136;28;20262;-77
2021/08/04 07:21:34;;;;;;;23.23;17.87;;;20.00;1.00;;;;;;5073367;28;20174;-78
2021/08/04 07:24:00;;;;;;;20.20;17.63;;;19.90;1.00;;;;;;5073078;28;20666;-78
2021/08/04 07:26:27;;;;;;;22.47;17.33;;;19.70;1.50;;;;;;5073521;28;20761;-79
2021/08/04 07:28:53;;;;;;;21.00;19.00;;;19.70;1.00;;;;;;5073000;28;20616;-80
2021/08/04 07:31:18;;;;;;;21.77;19.10;;;19.40;14.50;;;;;;5072478;28;20247;-81
2021/08/04 07:33:44;;;;;;;21.50;18.57;;;19.30;27.30;;;;;;5073304;28;20244;-77
2021/08/04 07:36:12;;;;;;;19.93;18.03;;;19.30;30.90;;;;;;5072410;28;20251;-80
2021/08/04 07:38:37;;;;;;;21.07;18.87;;;19.50;29.30;;;;;;5073134;28;20168;-78
2021/08/04 07:41:04;;;;;;;20.07;17.83;;;19.40;29.60;;;;;;5072852;28;20198;-80
2021/08/04 07:43:30;;;;;;;22.03;17.73;;;19.50;24.70;;;;;;5056032;28;20177;-80
2021/08/04 07:45:56;;;;;;;21.90;17.67;;;19.40;36.80;;;;;;5073057;28;20176;-78
2021/08/04 07:48:21;;;;;;;18.70;16.90;;;19.50;39.20;;;;;;5073086;28;20240;-78
2021/08/04 07:50:47;;;;;;;19.20;17.20;;;19.70;31.10;;;;;;5073006;28;20677;-80
2021/08/04 07:53:13;;;;;;;16.67;14.97;;;19.90;19.30;;;;;;5094114;28;20172;-79
2021/08/04 07:55:39;;;;;;;18.33;16.43;;;20.00;1.00;;;;;;5097378;28;20174;-81
2021/08/04 07:58:04;;;;;;;21.63;17.43;;;20.10;1.00;;;;;;5086683;28;20192;-80
2021/08/04 08:00:30;;;;;;;23.07;16.50;;;20.10;1.00;;;;;;5078980;28;20177;-83
2021/08/04 08:02:56;;;;;;;17.27;15.33;;;20.20;1.00;;;;;;5077472;28;20224;-80
2021/08/04 08:05:22;;;;;;;18.00;14.07;;;20.20;1.00;;;;;;5076647;28;20173;-78
2021/08/04 08:07:50;;;;;;;15.80;13.33;;;20.30;1.00;;;;;;5076756;28;20177;-77
2021/08/04 08:10:21;;;;;;;15.47;13.87;;;20.30;1.00;;;;;;5076445;28;20173;-80
2021/08/04 08:12:47;;;;;;;16.70;14.50;;;20.30;1.00;;;;;;5058531;28;20245;-79
2021/08/04 08:15:13;;;;;;;14.87;13.37;;;20.30;1.00;;;;;;5076489;28;20169;-80
2021/08/04 08:17:38;;;;;;;15.20;13.60;;;20.30;1.00;;;;;;5076828;28;20208;-78
2021/08/04 08:20:05;;;;;;;14.63;12.67;;;20.50;1.00;;;;;;5076098;28;20170;-77
2021/08/04 08:22:31;;;;;;;15.47;13.87;;;20.50;1.00;;;;;;5076921;28;20319;-78
2021/08/04 08:24:57;;;;;;;15.47;13.70;;;20.60;1.00;;;;;;5058291;28;20680;-78
2021/08/04 08:27:22;;;;;;;17.07;13.50;;;20.50;1.00;;;;;;5076508;28;20255;-79
2021/08/04 08:29:48;;;;;;;14.60;11.87;;;20.40;1.00;;;;;;5076308;28;20622;-81
2021/08/04 08:32:14;;;;;;;13.43;12.03;;;20.40;1.00;;;;;;5075828;28;20224;-79
2021/08/04 08:34:39;;;;;;;12.17;10.93;;;20.40;1.00;;;;;;5076525;28;20626;-78
2021/08/04 08:37:05;;;;;;;13.87;12.47;;;20.50;1.00;;;;;;5076059;28;20222;-79
2021/08/04 08:39:32;;;;;;;12.67;10.87;;;20.50;1.00;;;;;;5076486;28;20644;-79
2021/08/04 08:42:00;;;;;;;13.17;11.70;;;20.40;1.00;;;;;;5076777;28;20193;-79
2021/08/04 08:44:26;;;;;;;17.83;12.57;;;20.50;1.00;;;;;;5079966;28;20188;-79
2021/08/04 08:46:51;;;;;;;12.93;11.47;;;20.50;1.00;;;;;;5081676;28;20197;-77
2021/08/04 08:49:26;;;;;;;14.87;11.80;;;20.30;1.00;;;;;;5083876;28;20201;-79
2021/08/04 08:51:52;;;;;;;12.63;11.33;;;20.20;1.00;;;;;;5084157;28;20287;-79
2021/08/04 08:54:17;;;;;;;13.63;12.23;;;20.20;1.00;;;;;;5076675;28;20228;-79
2021/08/04 08:56:43;;;;;;;14.23;11.13;;;20.30;1.00;;;;;;5075777;28;20182;-78
2021/08/04 08:59:09;;;;;;;11.03;9.93;;;20.60;1.00;;;;;;5076493;28;20170;-78
2021/08/04 09:01:38;;;;;;;13.20;10.93;;;20.80;1.00;;;;;;5077262;28;20205;-78
2021/08/04 09:04:10;;;;;;;13.20;11.80;;;20.80;1.00;;;;;;5060456;28;20180;-78
2021/08/04 09:06:55;;;;;;;13.10;10.73;;;20.60;1.00;;;;;;5080542;28;20203;-77
2021/08/04 09:09:29;;;;;;;11.30;9.90;;;20.50;1.00;;;;;;5079571;28;20185;-76
2021/08/04 09:12:12;;;;;;;10.43;8.77;;;20.60;1.00;;;;;;5063823;28;20206;-77
2021/08/04 09:14:39;;;;;;;10.83;8.50;;;20.70;1.00;;;;;;5082088;28;20169;-76
2021/08/04 09:17:14;;;;;;;9.03;8.10;;;20.80;1.00;;;;;;5077210;28;20601;-78
2021/08/04 09:19:51;;;;;;;12.07;8.33;;;21.10;1.00;;;;;;5075608;28;20201;-77
2021/08/04 09:22:27;;;;;;;11.83;8.03;;;21.10;1.00;;;;;;5075694;28;20175;-78
2021/08/04 09:25:07;;;;;;;7.87;5.93;;;21.30;1.00;;;;;;5075358;28;20528;-78
2021/08/04 09:27:50;;;;;;;8.53;5.30;;;21.60;1.00;;;;;;5075613;28;20161;-79
2021/08/04 09:30:29;;;;;;;6.83;4.13;;;21.90;1.00;;;;;;5075032;28;20516;-78
2021/08/04 09:33:16;;;;;;;7.73;5.70;;;22.00;1.00;;;;;;5074977;28;20253;-79
2021/08/04 09:35:55;;;;;;;7.93;5.03;;;22.30;1.00;;;;;;5075457;28;20164;-78
2021/08/04 09:38:22;;;;;;;8.03;5.13;;;22.50;1.00;;;;;;5057103;28;20516;-78
2021/08/04 09:41:08;;;;;;;5.20;3.60;;;22.60;1.00;;;;;;5075064;28;20171;-78
2021/08/04 09:43:34;;;;;;;5.23;3.80;;;22.60;99.90;;;;;;5074962;28;20183;-79
2021/08/04 09:46:00;;;;;;;5.13;3.83;;;22.60;1.00;;;;;;5074772;28;20162;-79
2021/08/04 09:48:28;;;;;;;6.57;4.13;;;22.50;1.00;;;;;;5058358;28;20533;-78
2021/08/04 09:50:58;;;;;;;6.83;4.40;;;22.60;1.00;;;;;;5075739;28;20197;-79
2021/08/04 09:53:27;;;;;;;9.63;4.97;;;22.60;1.00;;;;;;5075816;28;20255;-78
2021/08/04 09:56:17;;;;;;;6.07;4.33;;;22.30;1.00;;;;;;5073044;28;20194;-78
2021/08/04 09:58:47;;;;;;;6.70;4.73;;;22.10;1.00;;;;;;5064023;28;20180;-78
2021/08/04 10:01:15;;;;;;;7.10;5.13;;;21.90;1.00;;;;;;5054421;28;20198;-78
2021/08/04 10:04:05;;;;;;;6.67;4.87;;;21.90;1.00;;;;;;5055030;28;20252;-78
2021/08/04 10:06:31;;;;;;;7.57;4.93;;;21.90;1.00;;;;;;5054931;28;20176;-78
2021/08/04 10:08:57;;;;;;;6.57;4.57;;;22.00;1.00;;;;;;5054780;28;20177;-78
2021/08/04 10:11:24;;;;;;;6.17;4.60;;;22.20;1.00;;;;;;5054954;28;20279;-78
2021/08/04 10:13:53;;;;;;;7.63;4.80;;;22.50;1.00;;;;;;5061226;28;20154;-79
2021/08/04 10:16:20;;;;;;;6.97;4.80;;;22.60;1.00;;;;;;5077380;28;20188;-78
2021/08/04 10:18:46;;;;;;;7.20;5.20;;;22.90;99.90;;;;;;5075176;28;20280;-78
2021/08/04 10:21:14;;;;;;;12.30;5.17;;;23.10;99.90;;;;;;5062802;28;20209;-78
2021/08/04 10:23:46;;;;;;;8.47;5.07;;;23.20;99.90;;;;;;5064206;28;20168;-78
2021/08/04 10:26:16;;;;;;;7.17;5.00;;;23.30;99.90;;;;;;5054221;28;20183;-81
2021/08/04 10:28:45;;;;;;;8.17;4.87;;;23.20;99.90;;;;;;5054386;28;20179;-79
2021/08/04 10:31:14;;;;;;;7.33;5.43;;;23.30;99.90;;;;;;5035801;28;20268;-80
2021/08/04 10:33:41;;;;;;;8.63;4.97;;;23.00;99.90;;;;;;5054472;28;20170;-80
2021/08/04 10:36:10;;;;;;;7.27;5.37;;;23.10;99.90;;;;;;5054642;28;20644;-80
2021/08/04 10:39:00;;;;;;;7.50;5.43;;;23.30;99.90;;;;;;5055076;28;20160;-81
2021/08/04 10:41:28;;;;;;;7.43;5.20;;;23.40;99.90;;;;;;5063256;28;20268;-78
2021/08/04 10:43:56;;;;;;;6.93;5.13;;;23.30;99.90;;;;;;5062901;28;20151;-78
2021/08/04 10:46:27;;;;;;;6.50;4.53;;;23.50;99.90;;;;;;5077753;28;20168;-78
2021/08/04 10:49:00;;;;;;;5.27;3.93;;;23.70;99.90;;;;;;5077644;28;20163;-78
2021/08/04 10:51:26;;;;;;;4.50;3.70;;;23.80;99.90;;;;;;5067399;28;20375;-78
2021/08/04 10:54:00;;;;;;;4.70;3.63;;;23.80;85.80;;;;;;5062285;28;20172;-79
2021/08/04 10:56:35;;;;;;;5.83;3.70;;;24.00;1.00;;;;;;5061572;28;20175;-83
2021/08/04 10:59:10;;;;;;;5.03;3.53;;;24.10;1.00;;;;;;5036839;28;20488;-79
2021/08/04 11:01:46;;;;;;;6.03;3.20;;;24.20;99.30;;;;;;5053995;28;20620;-79
2021/08/04 11:04:14;;;;;;;5.70;3.50;;;24.20;1.00;;;;;;5053290;28;20202;-78
2021/08/04 11:07:07;;;;;;;6.23;3.47;;;24.20;99.90;;;;;;5053341;28;20200;-78
2021/08/04 11:09:38;;;;;;;8.83;4.47;;;24.30;99.90;;;;;;5053239;28;20671;-78
2021/08/04 11:12:15;;;;;;;5.57;3.50;;;24.50;84.70;;;;;;5053404;28;20215;-79
2021/08/04 11:14:58;;;;;;;6.53;3.43;;;24.40;99.90;;;;;;5053289;28;20165;-77
2021/08/04 11:17:32;;;;;;;5.60;3.90;;;24.20;99.90;;;;;;5054027;28;20174;-77
2021/08/04 11:20:08;;;;;;;4.43;2.97;;;23.80;99.90;;;;;;5056145;28;20167;-78
2021/08/04 11:22:39;;;;;;;4.00;2.67;;;23.30;99.90;;;;;;5035886;28;20530;-77
2021/08/04 11:25:08;;;;;;;4.43;3.10;;;23.30;1.00;;;;;;5054387;28;20257;-78
2021/08/04 11:27:44;;;;;;;4.97;3.10;;;23.60;1.00;;;;;;5053484;28;20283;-77
2021/08/04 11:30:13;;;;;;;5.60;3.80;;;23.80;80.50;;;;;;5052465;28;20181;-76
2021/08/04 11:32:38;;;;;;;5.27;3.70;;;23.50;99.90;;;;;;5052620;28;20264;-78
2021/08/04 11:35:18;;;;;;;5.30;4.03;;;23.40;99.90;;;;;;5051868;28;20180;-79
2021/08/04 11:37:45;;;;;;;5.53;3.13;;;23.70;1.00;;;;;;5052963;28;20716;-81
2021/08/04 11:40:12;;;;;;;4.17;3.67;;;24.00;99.90;;;;;;5052760;28;20650;-82
2021/08/04 11:42:38;;;;;;;5.07;3.93;;;23.90;1.00;;;;;;5041301;28;20235;-80
2021/08/04 11:45:05;;;;;;;7.57;3.63;;;24.00;99.90;;;;;;5073145;28;20201;-81
2021/08/04 11:47:31;;;;;;;4.73;3.57;;;24.10;1.00;;;;;;5073010;28;20213;-77
2021/08/04 11:50:04;;;;;;;5.97;3.97;;;24.10;1.00;;;;;;5072774;28;20261;-81
2021/08/04 11:52:32;;;;;;;5.70;3.30;;;24.10;99.90;;;;;;5073001;28;20218;-77
2021/08/04 11:55:13;;;;;;;4.23;3.00;;;24.30;1.00;;;;;;5072875;28;20309;-78
2021/08/04 11:57:42;;;;;;;4.67;3.53;;;24.20;1.00;;;;;;5072827;28;20178;-80
2021/08/04 12:00:11;;;;;;;4.97;3.93;;;24.40;99.90;;;;;;5054901;28;20175;-79
2021/08/04 12:02:38;;;;;;;4.90;3.20;;;24.40;99.90;;;;;;5069030;28;20191;-79
2021/08/04 12:05:06;;;;;;;4.30;2.80;;;24.50;99.90;;;;;;5061667;28;20267;-78
2021/08/04 12:07:35;;;;;;;5.90;3.60;;;24.30;99.90;;;;;;5052751;28;20262;-79
2021/08/04 12:10:06;;;;;;;6.93;4.70;;;24.10;1.00;;;;;;5054219;28;20164;-79
2021/08/04 12:12:35;;;;;;;4.80;3.67;;;24.10;1.00;;;;;;5054083;28;20204;-77
2021/08/04 12:15:13;;;;;;;3.70;2.83;;;24.10;1.00;;;;;;5055770;28;20165;-78
2021/08/04 12:17:39;;;;;;;5.90;3.33;;;24.20;1.00;;;;;;5053733;28;20207;-78
2021/08/04 12:20:22;;;;;;;4.20;3.03;;;24.30;1.00;;;;;;5053270;28;20199;-79
2021/08/04 12:23:09;;;;;;;8.17;2.80;;;24.50;99.90;;;;;;5056945;28;20161;-76
2021/08/04 12:25:37;;;;;;;5.17;3.50;;;24.70;99.90;;;;;;5057282;28;20254;-78
2021/08/04 12:28:04;;;;;;;5.10;3.90;;;24.80;99.90;;;;;;5052717;28;20244;-77
2021/08/04 12:30:33;;;;;;;5.37;3.17;;;24.70;1.00;;;;;;5052302;28;20263;-78
2021/08/04 12:33:04;;;;;;;4.50;3.40;;;24.40;1.00;;;;;;5052681;28;20212;-79
2021/08/04 12:35:50;;;;;;;4.23;3.00;;;24.50;1.00;;;;;;5059094;28;20184;-78
2021/08/04 12:38:20;;;;;;;3.00;2.30;;;24.80;99.90;;;;;;5052986;28;20642;-76
2021/08/04 12:40:49;;;;;;;3.57;2.80;;;24.70;1.00;;;;;;5063399;28;20211;-78
2021/08/04 12:43:16;;;;;;;5.93;3.20;;;24.70;1.00;;;;;;5055718;28;20616;-78
2021/08/04 12:45:47;;;;;;;4.93;3.30;;;24.50;1.00;;;;;;5056242;28;20172;-77